Terminal Aerodrome Forecast
Issued by NWS Melbourne, FL

Home | Current Version | Previous Version | Text Only | Print | Product List | Glossary On
Versions: 1 2 3 4 5 6 7 8 9 10 11 12 13 14 15 16 17 18 19 20 21 22 23 24 25 26
000
FTUS42 KMLB 171510 AAA
TAFMCO
TAF AMD
KMCO 171510Z 1715/1812 02013KT P6SM VCSH SCT025 SCT100 BKN200
      TEMPO 1716/1718 5SM -SHRA BKN025
     FM171800 02014G21KT P6SM VCSH SCT030 SCT080 BKN200
      TEMPO 1718/1721 3SM SHRA BKN025
     FM180300 36008KT P6SM SCT025 BKN050=

USA.gov is the U.S. government's official web portal to all federal, state and local government web resources and services.